sensor_id;sensor_type;location;lat;lon;timestamp;temperature;humidity
19152;DHT22;9708;53.114;9.388;2022-09-23T00:02:09;7.80;99.90
19152;DHT22;9708;53.114;9.388;2022-09-23T00:04:36;7.80;99.90
19152;DHT22;9708;53.114;9.388;2022-09-23T00:07:03;7.80;99.90
19152;DHT22;9708;53.114;9.388;2022-09-23T00:09:30;7.80;99.90
19152;DHT22;9708;53.114;9.388;2022-09-23T00:11:56;7.80;99.90
19152;DHT22;9708;53.114;9.388;2022-09-23T00:14:25;7.80;99.90
19152;DHT22;9708;53.114;9.388;2022-09-23T00:16:52;7.80;99.90
19152;DHT22;9708;53.114;9.388;2022-09-23T00:19:19;7.70;99.90
19152;DHT22;9708;53.114;9.388;2022-09-23T00:21:46;7.80;99.90
19152;DHT22;9708;53.114;9.388;2022-09-23T00:24:13;7.80;99.90
19152;DHT22;9708;53.114;9.388;2022-09-23T00:26:40;7.70;99.90
19152;DHT22;9708;53.114;9.388;2022-09-23T00:29:07;7.70;99.90
19152;DHT22;9708;53.114;9.388;2022-09-23T00:31:35;7.70;99.90
19152;DHT22;9708;53.114;9.388;2022-09-23T00:34:02;7.60;99.90
19152;DHT22;9708;53.114;9.388;2022-09-23T00:36:29;7.60;99.90
19152;DHT22;9708;53.114;9.388;2022-09-23T00:38:56;7.60;99.90
19152;DHT22;9708;53.114;9.388;2022-09-23T00:41:24;7.60;99.90
19152;DHT22;9708;53.114;9.388;2022-09-23T00:43:52;7.50;99.90
19152;DHT22;9708;53.114;9.388;2022-09-23T00:46:22;7.50;99.90
19152;DHT22;9708;53.114;9.388;2022-09-23T00:48:56;7.50;99.90
19152;DHT22;9708;53.114;9.388;2022-09-23T00:51:28;7.60;99.90
19152;DHT22;9708;53.114;9.388;2022-09-23T00:53:57;7.60;99.90
19152;DHT22;9708;53.114;9.388;2022-09-23T00:56:24;7.60;99.90
19152;DHT22;9708;53.114;9.388;2022-09-23T00:58:52;7.50;99.90
19152;DHT22;9708;53.114;9.388;2022-09-23T01:01:19;7.40;99.90
19152;DHT22;9708;53.114;9.388;2022-09-23T01:03:46;7.40;99.90
19152;DHT22;9708;53.114;9.388;2022-09-23T01:06:15;7.40;99.90
19152;DHT22;9708;53.114;9.388;2022-09-23T01:08:43;7.50;99.90
19152;DHT22;9708;53.114;9.388;2022-09-23T01:14:13;7.50;99.90
19152;DHT22;9708;53.114;9.388;2022-09-23T01:16:46;7.50;99.90
19152;DHT22;9708;53.114;9.388;2022-09-23T01:19:33;7.50;99.90
19152;DHT22;9708;53.114;9.388;2022-09-23T01:22:07;7.60;99.90
19152;DHT22;9708;53.114;9.388;2022-09-23T01:24:47;7.50;99.90
19152;DHT22;9708;53.114;9.388;2022-09-23T01:27:39;7.50;99.90
19152;DHT22;9708;53.114;9.388;2022-09-23T01:30:13;7.50;99.90
19152;DHT22;9708;53.114;9.388;2022-09-23T01:35:46;7.50;99.90
19152;DHT22;9708;53.114;9.388;2022-09-23T01:38:21;7.40;99.90
19152;DHT22;9708;53.114;9.388;2022-09-23T01:40:53;7.50;99.90
19152;DHT22;9708;53.114;9.388;2022-09-23T01:43:23;7.40;99.90
19152;DHT22;9708;53.114;9.388;2022-09-23T01:45:55;7.50;99.90
19152;DHT22;9708;53.114;9.388;2022-09-23T01:48:28;7.50;99.90
19152;DHT22;9708;53.114;9.388;2022-09-23T01:51:02;7.50;99.90
19152;DHT22;9708;53.114;9.388;2022-09-23T01:53:36;7.50;99.90
19152;DHT22;9708;53.114;9.388;2022-09-23T01:56:10;7.50;99.90
19152;DHT22;9708;53.114;9.388;2022-09-23T01:58:41;7.70;99.90
19152;DHT22;9708;53.114;9.388;2022-09-23T02:01:16;7.90;99.90
19152;DHT22;9708;53.114;9.388;2022-09-23T02:03:50;8.10;99.90
19152;DHT22;9708;53.114;9.388;2022-09-23T02:06:21;8.10;99.90
19152;DHT22;9708;53.114;9.388;2022-09-23T02:08:53;8.30;99.90
19152;DHT22;9708;53.114;9.388;2022-09-23T02:11:22;8.20;99.90
19152;DHT22;9708;53.114;9.388;2022-09-23T02:13:51;8.20;99.90
19152;DHT22;9708;53.114;9.388;2022-09-23T02:16:25;8.40;99.90
19152;DHT22;9708;53.114;9.388;2022-09-23T02:18:57;8.40;99.90
19152;DHT22;9708;53.114;9.388;2022-09-23T02:21:31;8.20;99.90
19152;DHT22;9708;53.114;9.388;2022-09-23T02:24:04;8.10;99.90
19152;DHT22;9708;53.114;9.388;2022-09-23T02:26:35;8.00;99.90
19152;DHT22;9708;53.114;9.388;2022-09-23T02:29:08;8.00;99.90
19152;DHT22;9708;53.114;9.388;2022-09-23T02:31:39;7.90;99.90
19152;DHT22;9708;53.114;9.388;2022-09-23T02:34:16;8.00;99.90
19152;DHT22;9708;53.114;9.388;2022-09-23T02:36:51;7.80;99.90
19152;DHT22;9708;53.114;9.388;2022-09-23T02:39:21;7.60;99.90
19152;DHT22;9708;53.114;9.388;2022-09-23T02:41:55;7.50;99.90
19152;DHT22;9708;53.114;9.388;2022-09-23T02:44:25;7.50;99.90
19152;DHT22;9708;53.114;9.388;2022-09-23T02:46:53;7.40;99.90
19152;DHT22;9708;53.114;9.388;2022-09-23T02:49:24;7.40;99.90
19152;DHT22;9708;53.114;9.388;2022-09-23T02:51:51;7.30;99.90
19152;DHT22;9708;53.114;9.388;2022-09-23T02:54:21;7.30;99.90
19152;DHT22;9708;53.114;9.388;2022-09-23T02:56:50;7.30;99.90
19152;DHT22;9708;53.114;9.388;2022-09-23T02:59:19;7.30;99.90
19152;DHT22;9708;53.114;9.388;2022-09-23T03:02:04;7.30;99.90
19152;DHT22;9708;53.114;9.388;2022-09-23T03:04:44;7.30;99.90
19152;DHT22;9708;53.114;9.388;2022-09-23T03:07:16;7.20;99.90
19152;DHT22;9708;53.114;9.388;2022-09-23T03:09:51;7.20;99.90
19152;DHT22;9708;53.114;9.388;2022-09-23T03:12:25;7.20;99.90
19152;DHT22;9708;53.114;9.388;2022-09-23T03:15:04;7.10;99.90
19152;DHT22;9708;53.114;9.388;2022-09-23T03:17:39;7.20;99.90
19152;DHT22;9708;53.114;9.388;2022-09-23T03:20:14;7.10;99.90
19152;DHT22;9708;53.114;9.388;2022-09-23T03:22:45;7.10;99.90
19152;DHT22;9708;53.114;9.388;2022-09-23T03:25:18;7.10;99.90
19152;DHT22;9708;53.114;9.388;2022-09-23T03:27:46;7.10;99.90
19152;DHT22;9708;53.114;9.388;2022-09-23T03:30:13;7.20;99.90
19152;DHT22;9708;53.114;9.388;2022-09-23T03:32:43;7.20;99.90
19152;DHT22;9708;53.114;9.388;2022-09-23T03:35:13;7.10;99.90
19152;DHT22;9708;53.114;9.388;2022-09-23T03:37:43;7.10;99.90
19152;DHT22;9708;53.114;9.388;2022-09-23T03:40:14;7.20;99.90
19152;DHT22;9708;53.114;9.388;2022-09-23T03:42:42;7.20;99.90
19152;DHT22;9708;53.114;9.388;2022-09-23T03:45:11;7.20;99.90
19152;DHT22;9708;53.114;9.388;2022-09-23T03:47:43;7.20;99.90
19152;DHT22;9708;53.114;9.388;2022-09-23T03:50:12;7.10;99.90
19152;DHT22;9708;53.114;9.388;2022-09-23T03:52:39;7.10;99.90
19152;DHT22;9708;53.114;9.388;2022-09-23T03:55:07;7.10;99.90
19152;DHT22;9708;53.114;9.388;2022-09-23T03:57:34;7.20;99.90
19152;DHT22;9708;53.114;9.388;2022-09-23T04:00:01;7.10;99.90
19152;DHT22;9708;53.114;9.388;2022-09-23T04:02:29;7.10;99.90
19152;DHT22;9708;53.114;9.388;2022-09-23T04:04:56;7.10;99.90
19152;DHT22;9708;53.114;9.388;2022-09-23T04:07:24;7.20;99.90
19152;DHT22;9708;53.114;9.388;2022-09-23T04:09:51;7.20;99.90
19152;DHT22;9708;53.114;9.388;2022-09-23T04:12:18;7.20;99.90
19152;DHT22;9708;53.114;9.388;2022-09-23T04:14:45;7.20;99.90
19152;DHT22;9708;53.114;9.388;2022-09-23T04:17:13;7.20;99.90
19152;DHT22;9708;53.114;9.388;2022-09-23T04:19:39;7.20;99.90
19152;DHT22;9708;53.114;9.388;2022-09-23T04:22:08;7.30;99.90
19152;DHT22;9708;53.114;9.388;2022-09-23T04:24:36;7.30;99.90
19152;DHT22;9708;53.114;9.388;2022-09-23T04:27:03;7.20;99.90
19152;DHT22;9708;53.114;9.388;2022-09-23T04:29:30;7.30;99.90
19152;DHT22;9708;53.114;9.388;2022-09-23T04:31:57;7.30;99.90
19152;DHT22;9708;53.114;9.388;2022-09-23T04:34:23;7.30;99.90
19152;DHT22;9708;53.114;9.388;2022-09-23T04:36:50;7.40;99.90
19152;DHT22;9708;53.114;9.388;2022-09-23T04:39:17;7.40;99.90
19152;DHT22;9708;53.114;9.388;2022-09-23T04:41:45;7.40;99.90
19152;DHT22;9708;53.114;9.388;2022-09-23T04:44:13;7.40;99.90
19152;DHT22;9708;53.114;9.388;2022-09-23T04:46:41;7.30;99.90
19152;DHT22;9708;53.114;9.388;2022-09-23T04:49:08;7.40;99.90
19152;DHT22;9708;53.114;9.388;2022-09-23T04:51:35;7.40;99.90
19152;DHT22;9708;53.114;9.388;2022-09-23T04:54:02;7.40;99.90
19152;DHT22;9708;53.114;9.388;2022-09-23T04:56:29;7.40;99.90
19152;DHT22;9708;53.114;9.388;2022-09-23T04:58:58;7.30;99.90
19152;DHT22;9708;53.114;9.388;2022-09-23T05:01:27;7.40;99.90
19152;DHT22;9708;53.114;9.388;2022-09-23T05:03:56;7.40;99.90
19152;DHT22;9708;53.114;9.388;2022-09-23T05:06:26;7.50;99.90
19152;DHT22;9708;53.114;9.388;2022-09-23T05:08:55;7.40;99.90
19152;DHT22;9708;53.114;9.388;2022-09-23T05:11:23;7.40;99.90
19152;DHT22;9708;53.114;9.388;2022-09-23T05:13:51;7.40;99.90
19152;DHT22;9708;53.114;9.388;2022-09-23T05:16:21;7.40;99.90
19152;DHT22;9708;53.114;9.388;2022-09-23T05:18:49;7.40;99.90
19152;DHT22;9708;53.114;9.388;2022-09-23T05:21:18;7.30;99.90
19152;DHT22;9708;53.114;9.388;2022-09-23T05:23:46;7.30;99.90
19152;DHT22;9708;53.114;9.388;2022-09-23T05:26:13;7.30;99.90
19152;DHT22;9708;53.114;9.388;2022-09-23T05:28:40;7.40;99.90
19152;DHT22;9708;53.114;9.388;2022-09-23T05:31:08;7.50;99.90
19152;DHT22;9708;53.114;9.388;2022-09-23T05:33:37;7.40;99.90
19152;DHT22;9708;53.114;9.388;2022-09-23T05:36:05;7.50;99.90
19152;DHT22;9708;53.114;9.388;2022-09-23T05:38:32;7.50;99.90
19152;DHT22;9708;53.114;9.388;2022-09-23T05:41:01;7.60;99.90
19152;DHT22;9708;53.114;9.388;2022-09-23T05:43:29;7.60;99.90
19152;DHT22;9708;53.114;9.388;2022-09-23T05:46:01;7.60;99.90
19152;DHT22;9708;53.114;9.388;2022-09-23T05:48:28;7.60;99.90
19152;DHT22;9708;53.114;9.388;2022-09-23T05:50:57;7.70;99.90
19152;DHT22;9708;53.114;9.388;2022-09-23T05:53:24;7.70;99.90
19152;DHT22;9708;53.114;9.388;2022-09-23T05:55:51;7.80;99.90
19152;DHT22;9708;53.114;9.388;2022-09-23T05:58:19;7.90;99.90
19152;DHT22;9708;53.114;9.388;2022-09-23T06:00:46;7.80;99.90
19152;DHT22;9708;53.114;9.388;2022-09-23T06:03:14;7.90;99.90
19152;DHT22;9708;53.114;9.388;2022-09-23T06:05:42;7.90;99.90
19152;DHT22;9708;53.114;9.388;2022-09-23T06:08:10;8.00;99.90
19152;DHT22;9708;53.114;9.388;2022-09-23T06:10:37;8.10;99.90
19152;DHT22;9708;53.114;9.388;2022-09-23T06:13:04;8.10;99.90
19152;DHT22;9708;53.114;9.388;2022-09-23T06:15:32;8.20;99.90
19152;DHT22;9708;53.114;9.388;2022-09-23T06:17:58;8.30;99.90
19152;DHT22;9708;53.114;9.388;2022-09-23T06:20:25;8.30;99.90
19152;DHT22;9708;53.114;9.388;2022-09-23T06:22:52;8.30;99.90
19152;DHT22;9708;53.114;9.388;2022-09-23T06:25:21;8.30;99.90
19152;DHT22;9708;53.114;9.388;2022-09-23T06:27:51;8.30;99.90
19152;DHT22;9708;53.114;9.388;2022-09-23T06:30:19;8.40;99.90
19152;DHT22;9708;53.114;9.388;2022-09-23T06:32:47;8.50;99.90
19152;DHT22;9708;53.114;9.388;2022-09-23T06:35:16;8.60;99.90
19152;DHT22;9708;53.114;9.388;2022-09-23T06:37:43;9.10;99.90
19152;DHT22;9708;53.114;9.388;2022-09-23T06:40:10;9.80;99.90
19152;DHT22;9708;53.114;9.388;2022-09-23T06:42:40;10.70;99.90
19152;DHT22;9708;53.114;9.388;2022-09-23T06:45:07;11.20;99.90
19152;DHT22;9708;53.114;9.388;2022-09-23T06:47:40;11.50;99.90
19152;DHT22;9708;53.114;9.388;2022-09-23T06:50:08;11.40;99.90
19152;DHT22;9708;53.114;9.388;2022-09-23T06:52:36;11.70;99.90
19152;DHT22;9708;53.114;9.388;2022-09-23T06:55:03;11.60;99.90
19152;DHT22;9708;53.114;9.388;2022-09-23T06:57:30;12.30;99.90
19152;DHT22;9708;53.114;9.388;2022-09-23T06:59:58;12.40;99.90
19152;DHT22;9708;53.114;9.388;2022-09-23T07:02:26;12.70;99.90
19152;DHT22;9708;53.114;9.388;2022-09-23T07:04:53;12.70;99.90
19152;DHT22;9708;53.114;9.388;2022-09-23T07:07:21;12.90;99.90
19152;DHT22;9708;53.114;9.388;2022-09-23T07:09:48;13.40;99.90
19152;DHT22;9708;53.114;9.388;2022-09-23T07:12:15;14.10;99.90
19152;DHT22;9708;53.114;9.388;2022-09-23T07:14:42;15.20;99.90
19152;DHT22;9708;53.114;9.388;2022-09-23T07:17:10;15.40;99.90
19152;DHT22;9708;53.114;9.388;2022-09-23T07:19:37;16.40;99.90
19152;DHT22;9708;53.114;9.388;2022-09-23T07:22:04;15.80;99.90
19152;DHT22;9708;53.114;9.388;2022-09-23T07:24:31;15.50;99.90
19152;DHT22;9708;53.114;9.388;2022-09-23T07:26:58;16.00;99.90
19152;DHT22;9708;53.114;9.388;2022-09-23T07:29:26;16.40;99.90
19152;DHT22;9708;53.114;9.388;2022-09-23T07:31:53;16.20;99.90
19152;DHT22;9708;53.114;9.388;2022-09-23T07:34:21;17.10;99.90
19152;DHT22;9708;53.114;9.388;2022-09-23T07:36:48;15.70;99.90
19152;DHT22;9708;53.114;9.388;2022-09-23T07:39:15;15.20;99.90
19152;DHT22;9708;53.114;9.388;2022-09-23T07:41:42;15.00;99.90
19152;DHT22;9708;53.114;9.388;2022-09-23T07:44:09;15.30;99.90
19152;DHT22;9708;53.114;9.388;2022-09-23T07:46:36;15.40;99.90
19152;DHT22;9708;53.114;9.388;2022-09-23T07:49:04;15.50;99.90
19152;DHT22;9708;53.114;9.388;2022-09-23T07:51:34;15.30;99.90
19152;DHT22;9708;53.114;9.388;2022-09-23T07:54:02;15.50;99.90
19152;DHT22;9708;53.114;9.388;2022-09-23T07:56:29;15.90;99.90
19152;DHT22;9708;53.114;9.388;2022-09-23T07:58:56;15.50;99.90
19152;DHT22;9708;53.114;9.388;2022-09-23T08:01:29;15.50;99.90
19152;DHT22;9708;53.114;9.388;2022-09-23T08:03:58;15.20;99.90
19152;DHT22;9708;53.114;9.388;2022-09-23T08:06:25;15.90;99.90
19152;DHT22;9708;53.114;9.388;2022-09-23T08:08:56;16.20;99.90
19152;DHT22;9708;53.114;9.388;2022-09-23T08:11:23;16.40;99.90
19152;DHT22;9708;53.114;9.388;2022-09-23T08:13:51;16.20;99.90
19152;DHT22;9708;53.114;9.388;2022-09-23T08:16:18;16.50;99.90
19152;DHT22;9708;53.114;9.388;2022-09-23T08:18:45;16.70;99.90
19152;DHT22;9708;53.114;9.388;2022-09-23T08:21:17;17.10;99.90
19152;DHT22;9708;53.114;9.388;2022-09-23T08:23:44;17.50;99.90
19152;DHT22;9708;53.114;9.388;2022-09-23T08:26:12;18.00;99.90
19152;DHT22;9708;53.114;9.388;2022-09-23T08:28:42;17.80;99.90
19152;DHT22;9708;53.114;9.388;2022-09-23T08:31:09;17.70;99.90
19152;DHT22;9708;53.114;9.388;2022-09-23T08:33:36;17.40;99.90
19152;DHT22;9708;53.114;9.388;2022-09-23T08:36:04;17.00;99.90
19152;DHT22;9708;53.114;9.388;2022-09-23T08:38:30;17.80;99.90
19152;DHT22;9708;53.114;9.388;2022-09-23T08:41:05;18.10;99.90
19152;DHT22;9708;53.114;9.388;2022-09-23T08:43:36;17.90;99.90
19152;DHT22;9708;53.114;9.388;2022-09-23T08:46:07;17.90;99.90
19152;DHT22;9708;53.114;9.388;2022-09-23T08:48:40;17.50;99.90
19152;DHT22;9708;53.114;9.388;2022-09-23T08:51:12;18.20;99.90
19152;DHT22;9708;53.114;9.388;2022-09-23T08:53:40;18.90;99.90
19152;DHT22;9708;53.114;9.388;2022-09-23T08:56:12;19.10;99.90
19152;DHT22;9708;53.114;9.388;2022-09-23T08:58:52;18.70;99.90
19152;DHT22;9708;53.114;9.388;2022-09-23T09:01:25;18.80;99.90
19152;DHT22;9708;53.114;9.388;2022-09-23T09:03:55;19.20;99.90
19152;DHT22;9708;53.114;9.388;2022-09-23T09:06:26;19.60;99.90
19152;DHT22;9708;53.114;9.388;2022-09-23T09:08:57;20.10;99.90
19152;DHT22;9708;53.114;9.388;2022-09-23T09:11:30;19.90;99.90
19152;DHT22;9708;53.114;9.388;2022-09-23T09:14:04;19.90;99.90
19152;DHT22;9708;53.114;9.388;2022-09-23T09:16:46;20.90;99.90
19152;DHT22;9708;53.114;9.388;2022-09-23T09:19:19;21.10;99.90
19152;DHT22;9708;53.114;9.388;2022-09-23T09:21:49;20.70;99.90
19152;DHT22;9708;53.114;9.388;2022-09-23T09:24:20;20.90;99.90
19152;DHT22;9708;53.114;9.388;2022-09-23T09:26:49;21.20;99.90
19152;DHT22;9708;53.114;9.388;2022-09-23T09:29:21;22.50;99.90
19152;DHT22;9708;53.114;9.388;2022-09-23T09:31:50;22.10;99.90
19152;DHT22;9708;53.114;9.388;2022-09-23T09:34:24;21.30;99.90
19152;DHT22;9708;53.114;9.388;2022-09-23T09:37:00;21.40;99.90
19152;DHT22;9708;53.114;9.388;2022-09-23T09:39:31;22.60;99.90
19152;DHT22;9708;53.114;9.388;2022-09-23T09:41:59;22.70;99.90
19152;DHT22;9708;53.114;9.388;2022-09-23T09:44:31;21.90;99.90
19152;DHT22;9708;53.114;9.388;2022-09-23T09:47:12;22.00;99.90
19152;DHT22;9708;53.114;9.388;2022-09-23T09:49:45;22.10;99.90
19152;DHT22;9708;53.114;9.388;2022-09-23T09:52:20;23.50;99.90
19152;DHT22;9708;53.114;9.388;2022-09-23T09:54:48;23.50;99.90
19152;DHT22;9708;53.114;9.388;2022-09-23T09:57:31;22.60;99.90
19152;DHT22;9708;53.114;9.388;2022-09-23T10:00:18;22.90;99.90
19152;DHT22;9708;53.114;9.388;2022-09-23T10:02:46;23.00;99.90
19152;DHT22;9708;53.114;9.388;2022-09-23T10:05:25;23.30;99.90
19152;DHT22;9708;53.114;9.388;2022-09-23T10:07:53;23.40;99.90
19152;DHT22;9708;53.114;9.388;2022-09-23T10:10:21;23.20;99.90
19152;DHT22;9708;53.114;9.388;2022-09-23T10:12:49;22.80;99.90
19152;DHT22;9708;53.114;9.388;2022-09-23T10:15:28;22.50;99.90
19152;DHT22;9708;53.114;9.388;2022-09-23T10:17:55;22.00;99.90
19152;DHT22;9708;53.114;9.388;2022-09-23T10:20:26;22.40;99.90
19152;DHT22;9708;53.114;9.388;2022-09-23T10:23:05;22.00;99.90
19152;DHT22;9708;53.114;9.388;2022-09-23T10:25:34;21.90;99.90
19152;DHT22;9708;53.114;9.388;2022-09-23T10:28:29;21.50;99.90
19152;DHT22;9708;53.114;9.388;2022-09-23T10:31:06;21.10;99.90
19152;DHT22;9708;53.114;9.388;2022-09-23T10:33:33;21.50;99.90
19152;DHT22;9708;53.114;9.388;2022-09-23T10:36:08;21.50;99.90
19152;DHT22;9708;53.114;9.388;2022-09-23T10:38:35;21.70;99.90
19152;DHT22;9708;53.114;9.388;2022-09-23T10:41:04;21.40;99.90
19152;DHT22;9708;53.114;9.388;2022-09-23T10:44:05;21.40;99.90
19152;DHT22;9708;53.114;9.388;2022-09-23T10:47:00;21.30;99.90
19152;DHT22;9708;53.114;9.388;2022-09-23T10:49:47;21.00;99.90
19152;DHT22;9708;53.114;9.388;2022-09-23T10:52:37;20.80;99.90
19152;DHT22;9708;53.114;9.388;2022-09-23T10:55:19;20.60;99.90
19152;DHT22;9708;53.114;9.388;2022-09-23T10:57:58;20.60;99.90
19152;DHT22;9708;53.114;9.388;2022-09-23T11:00:37;20.50;99.90
19152;DHT22;9708;53.114;9.388;2022-09-23T11:03:22;20.80;99.90
19152;DHT22;9708;53.114;9.388;2022-09-23T11:06:04;20.80;99.90
19152;DHT22;9708;53.114;9.388;2022-09-23T11:08:48;20.60;99.90
19152;DHT22;9708;53.114;9.388;2022-09-23T11:11:26;20.40;99.90
19152;DHT22;9708;53.114;9.388;2022-09-23T11:17:17;20.20;99.90
19152;DHT22;9708;53.114;9.388;2022-09-23T11:20:20;20.20;99.90
19152;DHT22;9708;53.114;9.388;2022-09-23T11:23:13;20.20;99.90
19152;DHT22;9708;53.114;9.388;2022-09-23T11:25:49;20.00;99.90
19152;DHT22;9708;53.114;9.388;2022-09-23T11:28:36;20.40;99.90
19152;DHT22;9708;53.114;9.388;2022-09-23T11:31:17;20.30;99.90
19152;DHT22;9708;53.114;9.388;2022-09-23T11:34:02;20.20;99.90
19152;DHT22;9708;53.114;9.388;2022-09-23T11:36:34;20.30;99.90
19152;DHT22;9708;53.114;9.388;2022-09-23T11:39:07;20.10;99.90
19152;DHT22;9708;53.114;9.388;2022-09-23T11:41:39;20.10;99.90
19152;DHT22;9708;53.114;9.388;2022-09-23T11:44:12;19.90;99.90
19152;DHT22;9708;53.114;9.388;2022-09-23T11:46:42;20.10;99.90
19152;DHT22;9708;53.114;9.388;2022-09-23T11:49:15;20.20;99.90
19152;DHT22;9708;53.114;9.388;2022-09-23T11:51:55;20.30;99.90
19152;DHT22;9708;53.114;9.388;2022-09-23T11:54:26;20.30;99.90
19152;DHT22;9708;53.114;9.388;2022-09-23T11:56:59;20.10;99.90
19152;DHT22;9708;53.114;9.388;2022-09-23T11:59:34;20.30;99.90
19152;DHT22;9708;53.114;9.388;2022-09-23T12:02:08;19.90;99.90
19152;DHT22;9708;53.114;9.388;2022-09-23T12:04:39;19.90;99.90
19152;DHT22;9708;53.114;9.388;2022-09-23T12:07:11;19.60;99.90
19152;DHT22;9708;53.114;9.388;2022-09-23T12:09:46;19.70;99.90
19152;DHT22;9708;53.114;9.388;2022-09-23T12:12:19;19.60;99.90
19152;DHT22;9708;53.114;9.388;2022-09-23T12:14:55;19.80;99.90
19152;DHT22;9708;53.114;9.388;2022-09-23T12:17:43;19.80;99.90
19152;DHT22;9708;53.114;9.388;2022-09-23T12:20:40;19.80;99.90
19152;DHT22;9708;53.114;9.388;2022-09-23T12:23:22;19.50;99.90
19152;DHT22;9708;53.114;9.388;2022-09-23T12:25:53;19.40;99.90
19152;DHT22;9708;53.114;9.388;2022-09-23T12:28:24;19.40;99.90
19152;DHT22;9708;53.114;9.388;2022-09-23T12:30:54;19.40;99.90
19152;DHT22;9708;53.114;9.388;2022-09-23T12:33:22;19.40;99.90
19152;DHT22;9708;53.114;9.388;2022-09-23T12:35:53;19.80;99.90
19152;DHT22;9708;53.114;9.388;2022-09-23T12:38:23;19.70;99.90
19152;DHT22;9708;53.114;9.388;2022-09-23T12:40:52;19.80;99.90
19152;DHT22;9708;53.114;9.388;2022-09-23T12:43:27;19.60;99.90
19152;DHT22;9708;53.114;9.388;2022-09-23T12:46:16;19.60;99.90
19152;DHT22;9708;53.114;9.388;2022-09-23T12:48:45;19.50;99.90
19152;DHT22;9708;53.114;9.388;2022-09-23T12:51:15;19.30;99.90
19152;DHT22;9708;53.114;9.388;2022-09-23T12:57:09;19.20;99.90
19152;DHT22;9708;53.114;9.388;2022-09-23T12:59:58;18.90;99.90
19152;DHT22;9708;53.114;9.388;2022-09-23T13:02:28;18.90;99.90
19152;DHT22;9708;53.114;9.388;2022-09-23T13:05:08;18.90;99.90
19152;DHT22;9708;53.114;9.388;2022-09-23T13:07:59;19.00;99.90
19152;DHT22;9708;53.114;9.388;2022-09-23T13:10:30;19.00;99.90
19152;DHT22;9708;53.114;9.388;2022-09-23T13:12:59;19.00;99.90
19152;DHT22;9708;53.114;9.388;2022-09-23T13:15:28;18.80;99.90
19152;DHT22;9708;53.114;9.388;2022-09-23T13:18:22;18.80;99.90
19152;DHT22;9708;53.114;9.388;2022-09-23T13:20:50;19.00;99.90
19152;DHT22;9708;53.114;9.388;2022-09-23T13:23:20;19.10;99.90
19152;DHT22;9708;53.114;9.388;2022-09-23T13:25:50;19.00;99.90
19152;DHT22;9708;53.114;9.388;2022-09-23T13:28:25;19.10;99.90
19152;DHT22;9708;53.114;9.388;2022-09-23T13:30:52;19.00;99.90
19152;DHT22;9708;53.114;9.388;2022-09-23T13:33:25;18.90;99.90
19152;DHT22;9708;53.114;9.388;2022-09-23T13:35:57;18.70;99.90
19152;DHT22;9708;53.114;9.388;2022-09-23T13:38:27;18.80;99.90
19152;DHT22;9708;53.114;9.388;2022-09-23T13:40:59;18.90;99.90
19152;DHT22;9708;53.114;9.388;2022-09-23T13:43:30;19.00;99.90
19152;DHT22;9708;53.114;9.388;2022-09-23T13:45:58;18.90;99.90
19152;DHT22;9708;53.114;9.388;2022-09-23T13:48:27;19.00;99.90
19152;DHT22;9708;53.114;9.388;2022-09-23T13:50:54;18.70;99.90
19152;DHT22;9708;53.114;9.388;2022-09-23T13:53:23;18.90;99.90
19152;DHT22;9708;53.114;9.388;2022-09-23T13:56:04;18.90;99.90
19152;DHT22;9708;53.114;9.388;2022-09-23T13:58:34;18.70;99.90
19152;DHT22;9708;53.114;9.388;2022-09-23T14:01:01;18.50;99.90
19152;DHT22;9708;53.114;9.388;2022-09-23T14:03:30;18.50;99.90
19152;DHT22;9708;53.114;9.388;2022-09-23T14:05:58;18.30;99.90
19152;DHT22;9708;53.114;9.388;2022-09-23T14:08:26;18.30;99.90
19152;DHT22;9708;53.114;9.388;2022-09-23T14:10:55;18.40;99.90
19152;DHT22;9708;53.114;9.388;2022-09-23T14:13:25;18.40;99.90
19152;DHT22;9708;53.114;9.388;2022-09-23T14:15:54;18.50;99.90
19152;DHT22;9708;53.114;9.388;2022-09-23T14:18:27;18.50;99.90
19152;DHT22;9708;53.114;9.388;2022-09-23T14:20:55;18.40;99.90
19152;DHT22;9708;53.114;9.388;2022-09-23T14:23:22;18.30;99.90
19152;DHT22;9708;53.114;9.388;2022-09-23T14:25:50;18.20;99.90
19152;DHT22;9708;53.114;9.388;2022-09-23T14:28:19;18.20;99.90
19152;DHT22;9708;53.114;9.388;2022-09-23T14:30:50;18.20;99.90
19152;DHT22;9708;53.114;9.388;2022-09-23T14:33:21;18.40;99.90
19152;DHT22;9708;53.114;9.388;2022-09-23T14:35:51;18.40;99.90
19152;DHT22;9708;53.114;9.388;2022-09-23T14:38:22;18.20;99.90
19152;DHT22;9708;53.114;9.388;2022-09-23T14:41:14;18.00;99.90
19152;DHT22;9708;53.114;9.388;2022-09-23T14:43:46;18.00;99.90
19152;DHT22;9708;53.114;9.388;2022-09-23T14:46:18;18.10;99.90
19152;DHT22;9708;53.114;9.388;2022-09-23T14:48:55;18.10;99.90
19152;DHT22;9708;53.114;9.388;2022-09-23T14:51:30;18.40;99.90
19152;DHT22;9708;53.114;9.388;2022-09-23T14:54:25;18.30;99.90
19152;DHT22;9708;53.114;9.388;2022-09-23T14:56:53;18.40;99.90
19152;DHT22;9708;53.114;9.388;2022-09-23T14:59:24;18.30;99.90
19152;DHT22;9708;53.114;9.388;2022-09-23T15:01:53;18.20;99.90
19152;DHT22;9708;53.114;9.388;2022-09-23T15:04:30;18.10;99.90
19152;DHT22;9708;53.114;9.388;2022-09-23T15:07:02;18.10;99.90
19152;DHT22;9708;53.114;9.388;2022-09-23T15:09:32;18.10;99.90
19152;DHT22;9708;53.114;9.388;2022-09-23T15:12:03;18.20;99.90
19152;DHT22;9708;53.114;9.388;2022-09-23T15:14:34;18.00;99.90
19152;DHT22;9708;53.114;9.388;2022-09-23T15:17:05;18.10;99.90
19152;DHT22;9708;53.114;9.388;2022-09-23T15:19:37;18.00;99.90
19152;DHT22;9708;53.114;9.388;2022-09-23T15:22:06;17.90;99.90
19152;DHT22;9708;53.114;9.388;2022-09-23T15:24:40;17.90;99.90
19152;DHT22;9708;53.114;9.388;2022-09-23T15:27:23;17.90;99.90
19152;DHT22;9708;53.114;9.388;2022-09-23T15:29:50;17.80;99.90
19152;DHT22;9708;53.114;9.388;2022-09-23T15:32:19;17.80;99.90
19152;DHT22;9708;53.114;9.388;2022-09-23T15:34:48;17.80;99.90
19152;DHT22;9708;53.114;9.388;2022-09-23T15:37:15;17.90;99.90
19152;DHT22;9708;53.114;9.388;2022-09-23T15:39:42;17.80;99.90
19152;DHT22;9708;53.114;9.388;2022-09-23T15:42:09;17.90;99.90
19152;DHT22;9708;53.114;9.388;2022-09-23T15:44:36;17.80;99.90
19152;DHT22;9708;53.114;9.388;2022-09-23T15:47:03;17.80;99.90
19152;DHT22;9708;53.114;9.388;2022-09-23T15:49:34;17.80;99.90
19152;DHT22;9708;53.114;9.388;2022-09-23T15:52:03;17.70;99.90
19152;DHT22;9708;53.114;9.388;2022-09-23T15:54:30;17.70;99.90
19152;DHT22;9708;53.114;9.388;2022-09-23T15:56:58;17.70;99.90
19152;DHT22;9708;53.114;9.388;2022-09-23T15:59:26;17.60;99.90
19152;DHT22;9708;53.114;9.388;2022-09-23T16:01:53;17.60;99.90
19152;DHT22;9708;53.114;9.388;2022-09-23T16:04:21;17.60;99.90
19152;DHT22;9708;53.114;9.388;2022-09-23T16:06:49;17.50;99.90
19152;DHT22;9708;53.114;9.388;2022-09-23T16:09:16;17.50;99.90
19152;DHT22;9708;53.114;9.388;2022-09-23T16:11:44;17.50;99.90
19152;DHT22;9708;53.114;9.388;2022-09-23T16:14:13;17.40;99.90
19152;DHT22;9708;53.114;9.388;2022-09-23T16:16:40;17.40;99.90
19152;DHT22;9708;53.114;9.388;2022-09-23T16:19:09;17.40;99.90
19152;DHT22;9708;53.114;9.388;2022-09-23T16:21:36;17.20;99.90
19152;DHT22;9708;53.114;9.388;2022-09-23T16:24:13;17.10;99.90
19152;DHT22;9708;53.114;9.388;2022-09-23T16:26:40;17.00;99.90
19152;DHT22;9708;53.114;9.388;2022-09-23T16:29:09;16.80;99.90
19152;DHT22;9708;53.114;9.388;2022-09-23T16:31:36;16.80;99.90